This is the latest recevied weather packets stored in our database for station/object SV5BYP-12. If no packets are shown the sender has not sent any weather packets the latest 10 day(s).
| Time | Temp. | Humidity | Pressure | Rain* | Wind** | Luminosity | Snow |
|---|---|---|---|---|---|---|---|
| 1777999452 | 28.33° C | 35% | 1014.2 hPa | - | - | - | - |
| 1777999392 | 28.89° C | 33% | 1014.3 hPa | - | - | - | - |
| 1777999332 | 29.44° C | 32% | 1014.2 hPa | - | - | - | - |
| 1777999272 | 30° C | 32% | 1014.2 hPa | - | - | - | - |
| 1777998246 | 27.78° C | 34% | 1014.3 hPa | - | - | - | - |
| 1777998186 | 28.33° C | 34% | 1014.2 hPa | - | - | - | - |
| 1777998132 | 28.89° C | 33% | 1014.2 hPa | - | - | - | - |
| 1777998080 | 29.44° C | 32% | 1014.3 hPa | - | - | - | - |
| 1777998067 | 29.44° C | 31% | 1014.3 hPa | - | - | - | - |
| 1777998007 | 30° C | 31% | 1014.3 hPa | - | - | - | - |
| 1777993824 | 30.56° C | 31% | 1014.7 hPa | - | - | - | - |
| 1777993288 | 24.44° C | 41% | 1014.4 hPa | - | - | - | - |
| 1777991926 | 25.56° C | 37% | 1014.6 hPa | - | - | - | - |
| 1777991679 | 26.11° C | 36% | 1014.7 hPa | - | - | - | - |
| 1777991524 | 26.11° C | 36% | 1014.7 hPa | - | - | - | - |
| 1777991036 | 25.56° C | 37% | 1014.7 hPa | - | - | - | - |
| 1777991021 | 25.56° C | 37% | 1014.7 hPa | - | - | - | - |
| 1777990832 | 25° C | 38% | 1014.6 hPa | - | - | - | - |
| 1777990584 | 25° C | 38% | 1014.6 hPa | - | - | - | - |
| 1777990337 | 25° C | 38% | 1014.5 hPa | - | - | - | - |
| 1777989083 | 28.33° C | 32% | 1014.6 hPa | - | - | - | - |
| 1777988298 | 28.89° C | 31% | 1014.7 hPa | - | - | - | - |
| 1777987249 | 27.22° C | 33% | 1014.7 hPa | - | - | - | - |
| 1777986649 | 26.67° C | 33% | 1014.7 hPa | - | - | - | - |
| 1777986049 | 27.22° C | 30% | 1014.9 hPa | - | - | - | - |
* Rain since midnight (hover to see other rain measurements)
** Current wind speed in m/s (hover to see current wind gust speed)